createdAt,value
2017-11-29T00:01:51.537Z,80.93
2017-11-29T00:03:53.245Z,80.92
2017-11-29T00:05:55.560Z,80.91
2017-11-29T00:07:57.739Z,80.90
2017-11-29T00:09:59.670Z,80.95
2017-11-29T00:12:01.816Z,80.92
2017-11-29T00:14:03.920Z,80.92
2017-11-29T00:16:05.883Z,80.94
2017-11-29T00:18:07.973Z,80.91
2017-11-29T00:20:10.000Z,80.94
2017-11-29T00:22:11.843Z,80.96
2017-11-29T00:24:14.078Z,80.93
2017-11-29T00:26:16.021Z,80.95
2017-11-29T00:28:18.192Z,81.00
2017-11-29T00:30:20.408Z,81.00
2017-11-29T00:32:22.489Z,80.98
2017-11-29T00:34:24.442Z,80.95
2017-11-29T00:36:26.266Z,80.96
2017-11-29T00:38:28.251Z,80.95
2017-11-29T00:40:30.529Z,80.98
2017-11-29T00:42:32.604Z,80.95
2017-11-29T00:44:34.279Z,80.97
2017-11-29T00:46:36.302Z,80.98
2017-11-29T00:48:38.376Z,80.98
2017-11-29T00:50:40.531Z,80.97
2017-11-29T00:52:42.399Z,80.95
2017-11-29T00:54:44.440Z,80.95
2017-11-29T00:56:46.251Z,80.96
2017-11-29T00:58:48.573Z,80.96
2017-11-29T01:00:50.837Z,80.95
2017-11-29T01:02:53.016Z,80.92
2017-11-29T01:04:55.376Z,80.92
2017-11-29T01:06:57.080Z,80.91
2017-11-29T01:08:59.511Z,81.01
2017-11-29T01:11:01.873Z,80.82
2017-11-29T01:13:03.892Z,80.81
2017-11-29T01:15:06.003Z,80.85
2017-11-29T01:17:07.895Z,80.86
2017-11-29T01:19:09.713Z,80.87
2017-11-29T01:21:11.470Z,80.89
2017-11-29T01:23:13.541Z,80.88
2017-11-29T01:25:15.489Z,80.89
2017-11-29T01:27:17.576Z,80.90
2017-11-29T01:29:19.713Z,80.90
2017-11-29T01:31:21.682Z,80.90
2017-11-29T01:33:23.433Z,80.92
2017-11-29T01:35:25.277Z,80.93
2017-11-29T01:37:29.830Z,80.89
2017-11-29T01:39:31.775Z,80.91
2017-11-29T01:41:33.726Z,80.95
2017-11-29T01:43:35.911Z,80.94
2017-11-29T01:45:37.974Z,80.94
2017-11-29T01:47:40.462Z,80.93
2017-11-29T01:49:42.095Z,80.93
2017-11-29T01:51:44.579Z,80.96
2017-11-29T01:53:46.731Z,80.95
2017-11-29T01:55:48.486Z,80.98
2017-11-29T01:57:50.546Z,81.01
2017-11-29T01:59:52.912Z,80.95
2017-11-29T02:01:55.023Z,81.06
2017-11-29T02:03:57.029Z,80.98
2017-11-29T02:06:01.283Z,80.98
2017-11-29T02:08:03.267Z,81.00
2017-11-29T02:10:05.486Z,81.03
2017-11-29T02:12:07.860Z,81.06
2017-11-29T02:14:09.967Z,81.06
2017-11-29T02:16:11.774Z,81.07
2017-11-29T02:18:13.533Z,81.07
2017-11-29T02:20:15.719Z,81.07
2017-11-29T02:22:17.565Z,81.10
2017-11-29T02:24:19.437Z,81.13
2017-11-29T02:26:21.700Z,81.11
2017-11-29T02:28:23.552Z,81.15
2017-11-29T02:30:25.254Z,81.16
2017-11-29T02:32:27.683Z,81.20
2017-11-29T02:34:29.833Z,81.18
2017-11-29T02:36:31.953Z,81.20
2017-11-29T02:38:33.978Z,81.20
2017-11-29T02:40:42.018Z,81.24
2017-11-29T02:42:44.025Z,81.24
2017-11-29T02:44:46.248Z,81.25
2017-11-29T02:46:48.571Z,81.27
2017-11-29T02:48:50.261Z,81.26
2017-11-29T02:50:52.683Z,81.27
2017-11-29T02:52:54.557Z,81.28
2017-11-29T02:54:56.712Z,81.27
2017-11-29T02:56:58.774Z,81.32
2017-11-29T02:59:00.841Z,81.31
2017-11-29T03:01:02.902Z,81.32
2017-11-29T03:03:05.004Z,81.36
2017-11-29T03:05:06.745Z,81.32
2017-11-29T03:07:08.888Z,81.34
2017-11-29T03:10:02.563Z,81.34
2017-11-29T03:12:04.727Z,81.36
2017-11-29T03:14:06.487Z,81.35
2017-11-29T03:16:08.213Z,81.36
2017-11-29T03:34:53.729Z,81.41
2017-11-29T03:36:55.764Z,81.42
2017-11-29T03:38:57.753Z,81.42
2017-11-29T03:41:00.333Z,81.43
2017-11-29T03:43:02.502Z,81.44
2017-11-29T03:45:04.304Z,81.47
2017-11-29T03:47:06.081Z,81.46
2017-11-29T03:49:08.043Z,81.46
2017-11-29T03:51:09.941Z,81.48
2017-11-29T03:53:11.650Z,81.49
2017-11-29T03:55:13.238Z,81.47
2017-11-29T03:57:15.084Z,81.49
2017-11-29T03:59:17.079Z,81.50
2017-11-29T04:01:18.960Z,81.53
2017-11-29T04:03:20.631Z,81.51
2017-11-29T04:05:22.214Z,81.51
2017-11-29T04:07:24.219Z,81.53
2017-11-29T04:09:26.080Z,81.55
2017-11-29T04:11:28.222Z,81.53
2017-11-29T04:13:33.014Z,81.52
2017-11-29T04:15:34.686Z,81.53
2017-11-29T04:17:36.317Z,81.53
2017-11-29T04:19:38.226Z,81.57
2017-11-29T04:21:40.221Z,81.59
2017-11-29T04:23:42.223Z,81.64
2017-11-29T04:25:44.235Z,81.60
2017-11-29T04:27:46.260Z,81.64
2017-11-29T04:29:48.264Z,81.62
2017-11-29T04:31:50.240Z,81.63
2017-11-29T04:33:52.225Z,81.66
2017-11-29T04:35:54.250Z,81.63
2017-11-29T04:37:56.230Z,81.64
2017-11-29T04:39:58.277Z,81.65
2017-11-29T04:42:00.266Z,81.67
2017-11-29T04:44:02.220Z,81.69
2017-11-29T04:46:04.264Z,81.68
2017-11-29T04:48:06.240Z,81.69
2017-11-29T04:50:08.237Z,81.69
2017-11-29T04:52:10.286Z,81.69
2017-11-29T04:54:12.263Z,81.68
2017-11-29T04:56:14.280Z,81.68
2017-11-29T04:58:16.248Z,81.69
2017-11-29T05:00:18.261Z,81.69
2017-11-29T05:02:20.286Z,81.71
2017-11-29T05:07:53.102Z,81.73
2017-11-29T05:09:56.028Z,81.72
2017-11-29T05:11:58.515Z,81.73
2017-11-29T05:15:54.435Z,81.71
2017-11-29T05:17:57.002Z,81.72
2017-11-29T05:19:59.249Z,81.69
2017-11-29T05:22:01.960Z,81.69
2017-11-29T05:24:04.305Z,81.72
2017-11-29T05:26:07.004Z,81.72
2017-11-29T05:28:09.247Z,81.72
2017-11-29T05:30:11.744Z,81.70
2017-11-29T05:32:14.034Z,81.71
2017-11-29T05:34:16.907Z,81.69
2017-11-29T05:36:19.592Z,81.69
2017-11-29T05:38:21.831Z,81.72
2017-11-29T05:40:24.280Z,81.71
2017-11-29T05:42:26.889Z,81.71
2017-11-29T05:44:29.238Z,81.66
2017-11-29T05:46:31.732Z,81.66
2017-11-29T05:48:34.439Z,81.58
2017-11-29T05:50:37.002Z,81.59
2017-11-29T05:52:39.492Z,81.56
2017-11-29T05:54:42.029Z,81.58
2017-11-29T05:56:45.152Z,81.58
2017-11-29T05:58:48.214Z,81.55
2017-11-29T06:00:50.785Z,81.55
2017-11-29T06:02:53.760Z,81.54
2017-11-29T06:04:57.397Z,81.50
2017-11-29T06:06:59.851Z,81.50
2017-11-29T06:09:02.463Z,81.43
2017-11-29T06:11:05.760Z,81.46
2017-11-29T06:13:08.429Z,81.48
2017-11-29T06:16:49.401Z,81.49
2017-11-29T06:18:51.982Z,81.51
2017-11-29T06:20:54.874Z,81.41
2017-11-29T06:23:04.725Z,81.46
2017-11-29T06:25:07.814Z,81.42
2017-11-29T06:27:10.971Z,81.41
2017-11-29T06:29:13.976Z,81.40
2017-11-29T06:31:16.961Z,81.42
2017-11-29T06:33:20.075Z,81.40
2017-11-29T06:43:47.893Z,81.36
2017-11-29T06:45:50.976Z,81.38
2017-11-29T06:47:53.774Z,81.38
2017-11-29T06:49:56.835Z,81.38
2017-11-29T06:52:00.555Z,81.37
2017-11-29T06:54:03.762Z,81.35
2017-11-29T06:56:07.453Z,81.34
2017-11-29T06:58:09.910Z,81.34
2017-11-29T07:00:12.689Z,81.32
2017-11-29T07:02:15.278Z,81.34
2017-11-29T07:04:18.475Z,81.33
2017-11-29T07:06:21.048Z,81.33
2017-11-29T07:08:24.115Z,81.33
2017-11-29T07:10:27.124Z,81.32
2017-11-29T07:12:30.009Z,81.30
2017-11-29T07:14:33.727Z,81.27
2017-11-29T07:22:35.696Z,81.23
2017-11-29T07:24:38.985Z,81.25
2017-11-29T07:26:41.391Z,81.22
2017-11-29T07:28:44.437Z,81.18
2017-11-29T07:30:47.448Z,81.21
2017-11-29T07:32:49.994Z,81.19
2017-11-29T07:34:52.904Z,81.18
2017-11-29T07:45:18.487Z,81.12
2017-11-29T07:47:21.061Z,81.11
2017-11-29T07:49:24.025Z,81.09
2017-11-29T07:51:27.026Z,81.09
2017-11-29T07:53:30.105Z,81.03
2017-11-29T07:55:32.995Z,81.09
2017-11-29T07:57:38.815Z,81.08
2017-11-29T07:59:41.938Z,81.06
2017-11-29T08:01:45.109Z,80.99
2017-11-29T08:03:48.103Z,81.00
2017-11-29T08:05:51.076Z,81.02
2017-11-29T08:07:54.035Z,80.99
2017-11-29T08:09:56.980Z,80.98
2017-11-29T08:11:59.922Z,80.98
2017-11-29T08:14:02.994Z,80.94
2017-11-29T08:16:05.922Z,80.95
2017-11-29T08:18:08.981Z,80.96
2017-11-29T08:20:11.845Z,80.92
2017-11-29T08:22:14.933Z,80.88
2017-11-29T08:24:18.019Z,80.92
2017-11-29T08:26:21.021Z,80.92
2017-11-29T08:28:24.341Z,80.83
2017-11-29T08:30:46.140Z,80.83
2017-11-29T08:32:54.540Z,80.87
2017-11-29T08:34:57.535Z,80.83
2017-11-29T08:37:00.019Z,80.82
2017-11-29T08:39:03.006Z,80.80
2017-11-29T08:41:06.075Z,80.78
2017-11-29T08:43:08.940Z,80.79
2017-11-29T08:45:11.657Z,80.85
2017-11-29T08:47:14.543Z,80.83
2017-11-29T08:49:17.511Z,80.78
2017-11-29T08:51:20.583Z,80.82
2017-11-29T08:53:24.098Z,80.78
2017-11-29T08:55:27.024Z,80.77
2017-11-29T08:57:30.371Z,80.80
2017-11-29T08:59:33.032Z,80.75
2017-11-29T09:01:35.731Z,80.76
2017-11-29T09:03:38.015Z,80.75
2017-11-29T09:05:41.718Z,80.74
2017-11-29T09:07:46.143Z,80.74
2017-11-29T09:09:48.999Z,80.74
2017-11-29T09:11:51.579Z,80.76
2017-11-29T09:13:53.923Z,80.75
2017-11-29T09:15:56.497Z,80.79
2017-11-29T09:17:59.298Z,80.79
2017-11-29T09:20:02.065Z,80.79
2017-11-29T09:22:05.505Z,80.83
2017-11-29T09:24:08.988Z,80.81
2017-11-29T09:28:00.010Z,80.78
2017-11-29T09:30:02.979Z,80.76
2017-11-29T09:32:05.972Z,80.81
2017-11-29T09:34:08.953Z,80.74
2017-11-29T09:36:12.087Z,80.77
2017-11-29T09:38:15.763Z,80.75
2017-11-29T09:40:18.009Z,80.77
2017-11-29T09:42:20.722Z,80.72
2017-11-29T09:44:23.578Z,80.70
2017-11-29T09:46:26.556Z,80.72
2017-11-29T09:48:29.171Z,80.69
2017-11-29T09:50:32.011Z,80.72
2017-11-29T09:52:34.595Z,80.72
2017-11-29T09:54:36.977Z,80.72
2017-11-29T09:56:39.448Z,80.70
2017-11-29T09:58:42.752Z,80.73
2017-11-29T10:00:46.433Z,80.64
2017-11-29T10:02:49.431Z,80.65
2017-11-29T10:04:51.991Z,80.63
2017-11-29T10:06:54.871Z,80.59
2017-11-29T10:08:57.541Z,80.62
2017-11-29T10:11:00.938Z,80.60
2017-11-29T10:13:03.824Z,80.58
2017-11-29T10:15:06.745Z,80.57
2017-11-29T10:17:09.697Z,80.60
2017-11-29T10:19:12.979Z,80.57
2017-11-29T10:21:15.963Z,80.59
2017-11-29T10:25:05.724Z,80.57
2017-11-29T10:27:08.022Z,80.55
2017-11-29T10:29:11.022Z,80.57
2017-11-29T10:31:13.742Z,80.55
2017-11-29T10:33:16.783Z,80.57
2017-11-29T10:37:39.490Z,80.49
2017-11-29T10:39:43.058Z,80.50
2017-11-29T10:41:46.160Z,80.51
2017-11-29T10:43:49.133Z,80.56
2017-11-29T10:45:51.925Z,80.51
2017-11-29T10:47:54.598Z,80.50
2017-11-29T10:49:57.603Z,80.47
2017-11-29T10:52:00.761Z,80.44
2017-11-29T10:54:03.481Z,80.43
2017-11-29T10:56:06.665Z,80.44
2017-11-29T10:58:09.213Z,80.43
2017-11-29T11:00:11.897Z,80.40
2017-11-29T11:02:14.970Z,80.40
2017-11-29T11:04:17.843Z,80.41
2017-11-29T11:06:20.729Z,80.39
2017-11-29T11:08:25.139Z,80.38
2017-11-29T11:11:08.692Z,80.37
2017-11-29T11:13:11.059Z,80.38
2017-11-29T11:15:13.867Z,80.38
2017-11-29T11:17:16.950Z,80.35
2017-11-29T11:19:19.837Z,80.35
2017-11-29T11:21:23.536Z,80.33
2017-11-29T11:23:27.051Z,80.35
2017-11-29T11:25:47.018Z,80.32
2017-11-29T11:27:50.915Z,80.32
2017-11-29T11:29:53.536Z,80.32
2017-11-29T11:31:56.601Z,80.29
2017-11-29T11:34:00.090Z,80.26
2017-11-29T11:42:04.071Z,80.10
2017-11-29T11:44:08.647Z,80.08
2017-11-29T11:46:11.360Z,80.11
2017-11-29T11:48:14.436Z,80.11
2017-11-29T11:50:17.334Z,80.14
2017-11-29T11:52:20.519Z,80.16
2017-11-29T11:54:23.595Z,80.16
2017-11-29T11:58:13.068Z,80.14
2017-11-29T12:00:15.845Z,80.11
2017-11-29T12:02:18.767Z,80.07
2017-11-29T12:04:21.610Z,80.09
2017-11-29T12:08:03.819Z,80.05
2017-11-29T12:10:07.418Z,80.00
2017-11-29T12:12:10.002Z,80.05
2017-11-29T12:14:13.040Z,80.05
2017-11-29T12:25:14.778Z,80.02
2017-11-29T12:27:17.478Z,80.10
2017-11-29T12:29:19.956Z,79.97
2017-11-29T12:31:23.284Z,79.95
2017-11-29T12:41:47.499Z,79.90
2017-11-29T12:43:49.954Z,79.87
2017-11-29T12:45:52.571Z,79.92
2017-11-29T12:47:55.826Z,79.90
2017-11-29T12:50:04.067Z,79.83
2017-11-29T12:52:06.824Z,79.85
2017-11-29T12:54:10.913Z,79.85
2017-11-29T12:56:13.317Z,79.84
2017-11-29T13:04:15.808Z,79.82
2017-11-29T13:06:18.074Z,79.83
2017-11-29T13:08:20.858Z,79.87
2017-11-29T13:10:23.961Z,79.88
2017-11-29T13:12:26.927Z,79.90
2017-11-29T13:14:29.744Z,79.89
2017-11-29T13:24:20.991Z,79.79
2017-11-29T13:26:23.950Z,79.38
2017-11-29T13:28:26.446Z,78.72
2017-11-29T13:30:29.732Z,78.67
2017-11-29T13:32:32.827Z,78.99
2017-11-29T13:34:36.010Z,78.81
2017-11-29T13:36:38.996Z,78.94
2017-11-29T13:38:41.578Z,79.16
2017-11-29T13:40:44.039Z,79.10
2017-11-29T13:42:46.739Z,79.02
2017-11-29T13:44:49.065Z,79.04
2017-11-29T13:46:51.953Z,79.13
2017-11-29T13:48:54.451Z,79.18
2017-11-29T13:50:57.118Z,79.20
2017-11-29T13:52:59.708Z,79.23
2017-11-29T13:55:02.490Z,79.22
2017-11-29T13:57:04.958Z,79.28
2017-11-29T13:59:07.821Z,79.34
2017-11-29T14:01:10.901Z,79.30
2017-11-29T14:03:13.803Z,79.29
2017-11-29T14:05:16.702Z,79.28
2017-11-29T14:07:19.562Z,79.39
2017-11-29T14:09:22.043Z,79.43
2017-11-29T14:11:25.952Z,79.34
2017-11-29T14:13:29.053Z,79.32
2017-11-29T14:15:32.117Z,79.33
2017-11-29T14:17:35.005Z,79.33
2017-11-29T14:19:37.568Z,79.27
2017-11-29T14:21:39.929Z,79.28
2017-11-29T14:23:42.422Z,79.33
2017-11-29T14:25:44.893Z,79.27
2017-11-29T14:27:47.416Z,79.27
2017-11-29T14:29:50.883Z,79.29
2017-11-29T14:31:53.827Z,79.39
2017-11-29T14:33:56.818Z,79.09
2017-11-29T14:38:19.070Z,79.23
2017-11-29T14:40:21.831Z,79.21
2017-11-29T14:42:24.822Z,79.11
2017-11-29T14:44:26.988Z,79.06
2017-11-29T14:46:29.573Z,79.18
2017-11-29T14:48:31.941Z,79.10
2017-11-29T14:50:34.844Z,79.20
2017-11-29T14:52:38.942Z,79.14
2017-11-29T14:54:41.929Z,79.16
2017-11-29T14:56:44.901Z,79.18
2017-11-29T14:58:47.474Z,79.26
2017-11-29T15:00:49.832Z,79.18
2017-11-29T15:02:52.326Z,79.26
2017-11-29T15:04:54.701Z,79.30
2017-11-29T15:06:57.714Z,79.27
2017-11-29T15:09:00.432Z,79.31
2017-11-29T15:11:03.032Z,79.34
2017-11-29T15:13:06.714Z,79.30
2017-11-29T15:15:09.099Z,79.35
2017-11-29T15:17:11.874Z,79.34
2017-11-29T15:19:17.158Z,79.27
2017-11-29T15:21:19.892Z,79.33
2017-11-29T15:23:22.484Z,79.26
2017-11-29T15:25:25.673Z,79.18
2017-11-29T15:27:28.466Z,79.29
2017-11-29T15:29:30.911Z,79.25
2017-11-29T15:31:33.384Z,79.13
2017-11-29T15:33:36.067Z,79.22
2017-11-29T15:35:38.568Z,79.21
2017-11-29T15:37:40.900Z,79.23
2017-11-29T15:39:43.303Z,79.18
2017-11-29T15:41:45.756Z,79.26
2017-11-29T15:43:48.131Z,79.22
2017-11-29T15:45:51.943Z,79.27
2017-11-29T15:47:55.674Z,79.18
2017-11-29T15:49:58.971Z,79.26
2017-11-29T15:52:01.625Z,79.27
2017-11-29T15:54:03.969Z,79.26
2017-11-29T15:56:06.786Z,79.27
2017-11-29T16:06:35.899Z,79.34
2017-11-29T16:08:38.365Z,79.31
2017-11-29T16:10:40.939Z,79.42
2017-11-29T16:12:45.975Z,79.36
2017-11-29T16:14:48.551Z,79.41
2017-11-29T16:16:51.020Z,79.44
2017-11-29T16:18:53.701Z,79.37
2017-11-29T16:20:55.964Z,79.44
2017-11-29T16:22:58.455Z,79.37
2017-11-29T16:25:01.431Z,79.42
2017-11-29T16:27:04.082Z,79.49
2017-11-29T16:29:06.580Z,79.47
2017-11-29T16:31:09.038Z,79.45
2017-11-29T16:33:11.626Z,79.46
2017-11-29T16:35:14.117Z,79.50
2017-11-29T16:37:16.962Z,79.54
2017-11-29T16:39:19.552Z,79.47
2017-11-29T16:41:21.798Z,79.52
2017-11-29T16:43:24.441Z,79.51
2017-11-29T16:45:26.876Z,79.51
2017-11-29T16:47:29.031Z,79.47
2017-11-29T16:49:31.598Z,79.62
2017-11-29T16:51:33.956Z,79.61
2017-11-29T16:53:36.424Z,79.62
2017-11-29T16:55:38.396Z,79.63
2017-11-29T16:57:40.221Z,79.62
2017-11-29T17:07:27.929Z,79.62
2017-11-29T17:09:30.402Z,79.71
2017-11-29T17:11:32.636Z,79.74
2017-11-29T17:13:35.567Z,79.71
2017-11-29T17:15:37.921Z,79.74
2017-11-29T17:17:40.400Z,79.71
2017-11-29T17:19:42.878Z,79.76
2017-11-29T17:21:45.232Z,79.76
2017-11-29T17:23:47.409Z,79.81
2017-11-29T17:25:52.737Z,79.79
2017-11-29T17:27:54.911Z,79.78
2017-11-29T17:30:03.936Z,79.84
2017-11-29T17:32:06.401Z,79.80
2017-11-29T17:34:08.871Z,79.82
2017-11-29T17:44:22.059Z,79.90
2017-11-29T17:54:12.004Z,79.78
2017-11-29T17:56:14.246Z,79.83
2017-11-29T17:58:16.842Z,79.87
2017-11-29T18:00:19.010Z,79.90
2017-11-29T18:02:21.473Z,79.78
2017-11-29T18:04:23.853Z,79.81
2017-11-29T18:06:26.224Z,79.81
2017-11-29T18:08:28.815Z,79.85
2017-11-29T18:10:30.996Z,79.92
2017-11-29T18:12:33.568Z,79.88
2017-11-29T18:14:36.446Z,79.86
2017-11-29T18:16:38.809Z,79.85
2017-11-29T18:18:41.375Z,79.85
2017-11-29T18:20:43.957Z,79.89
2017-11-29T18:22:46.439Z,79.88
2017-11-29T18:24:48.924Z,79.86
2017-11-29T18:26:51.375Z,79.92
2017-11-29T18:28:53.855Z,79.95
2017-11-29T18:30:56.140Z,79.99
2017-11-29T18:32:58.328Z,79.92
2017-11-29T18:35:00.882Z,79.88
2017-11-29T18:37:03.559Z,79.92
2017-11-29T18:39:05.939Z,79.92
2017-11-29T18:41:08.493Z,79.98
2017-11-29T18:43:10.846Z,80.03
2017-11-29T18:45:13.647Z,80.05
2017-11-29T18:47:15.909Z,80.04
2017-11-29T18:49:18.922Z,80.04
2017-11-29T18:51:21.691Z,80.01
2017-11-29T18:53:23.966Z,80.03
2017-11-29T18:55:26.823Z,80.05
2017-11-29T18:57:29.408Z,80.07
2017-11-29T18:59:31.684Z,80.10
2017-11-29T19:01:33.948Z,80.08
2017-11-29T19:03:36.418Z,80.13
2017-11-29T19:05:38.996Z,80.12
2017-11-29T19:07:41.676Z,80.06
2017-11-29T19:09:43.930Z,80.05
2017-11-29T19:11:46.420Z,80.14
2017-11-29T19:13:48.766Z,80.17
2017-11-29T19:15:50.944Z,80.12
2017-11-29T19:17:55.629Z,80.12
2017-11-29T19:19:57.771Z,79.92
2017-11-29T19:22:00.427Z,79.78
2017-11-29T19:24:47.546Z,78.23
2017-11-29T19:26:49.374Z,77.07
2017-11-29T19:28:51.975Z,75.95
2017-11-29T19:30:54.091Z,75.01
2017-11-29T19:32:56.715Z,74.75
2017-11-29T19:34:58.966Z,74.25
2017-11-29T19:37:01.108Z,73.93
2017-11-29T19:39:03.513Z,73.67
2017-11-29T19:41:05.735Z,73.21
2017-11-29T19:43:07.962Z,73.06
2017-11-29T19:45:10.437Z,72.80
2017-11-29T19:47:12.596Z,72.73
2017-11-29T19:49:14.969Z,72.40
2017-11-29T19:51:17.743Z,72.27
2017-11-29T19:53:19.896Z,72.42
2017-11-29T19:55:22.278Z,72.21
2017-11-29T19:57:49.015Z,72.17
2017-11-29T19:59:51.772Z,71.77
2017-11-29T20:01:56.792Z,71.62
2017-11-29T20:03:58.875Z,71.33
2017-11-29T20:06:00.935Z,71.63
2017-11-29T20:08:03.532Z,71.31
2017-11-29T20:10:05.892Z,71.35
2017-11-29T20:12:08.352Z,71.10
2017-11-29T20:14:11.360Z,71.00
2017-11-29T20:16:13.906Z,71.32
2017-11-29T20:18:16.850Z,71.17
2017-11-29T20:20:18.963Z,71.14
2017-11-29T20:22:21.544Z,70.91
2017-11-29T20:24:23.920Z,71.00
2017-11-29T20:26:26.724Z,70.87
2017-11-29T20:28:28.835Z,70.91
2017-11-29T20:30:30.835Z,70.84
2017-11-29T20:32:32.969Z,70.74
2017-11-29T20:34:35.038Z,70.86
2017-11-29T20:36:37.731Z,70.82
2017-11-29T20:38:39.753Z,70.75
2017-11-29T20:40:42.865Z,70.74
2017-11-29T20:42:44.785Z,70.87
2017-11-29T20:44:46.976Z,70.72
2017-11-29T20:46:49.185Z,70.81
2017-11-29T20:48:51.731Z,70.84
2017-11-29T20:50:53.889Z,70.79
2017-11-29T20:52:56.455Z,70.79
2017-11-29T20:54:58.952Z,70.80
2017-11-29T20:57:00.985Z,70.73
2017-11-29T20:59:03.588Z,70.65
2017-11-29T21:01:05.934Z,70.78
2017-11-29T21:03:08.520Z,70.73
2017-11-29T21:05:11.076Z,70.92
2017-11-29T21:07:13.583Z,70.82
2017-11-29T21:09:15.942Z,70.72
2017-11-29T21:11:18.394Z,70.71
2017-11-29T21:13:20.865Z,70.73
2017-11-29T21:15:22.840Z,70.73
2017-11-29T21:17:24.988Z,70.73
2017-11-29T21:21:24.920Z,70.77
2017-11-29T21:23:27.607Z,70.77
2017-11-29T21:25:29.775Z,70.68
2017-11-29T21:27:31.920Z,70.74
2017-11-29T21:29:34.407Z,70.55
2017-11-29T21:31:36.654Z,70.64
2017-11-29T21:33:38.918Z,70.57
2017-11-29T21:35:41.097Z,70.64
2017-11-29T21:37:43.572Z,70.79
2017-11-29T21:39:45.953Z,70.66
2017-11-29T21:41:48.428Z,70.59
2017-11-29T21:43:50.873Z,70.58
2017-11-29T21:45:53.057Z,70.71
2017-11-29T21:47:55.416Z,70.63
2017-11-29T21:49:59.945Z,70.55
2017-11-29T21:52:02.098Z,70.70
2017-11-29T21:54:04.583Z,70.64
2017-11-29T21:56:06.934Z,70.72
2017-11-29T21:58:08.793Z,70.69
2017-11-29T22:00:11.235Z,70.70
2017-11-29T22:02:13.246Z,70.69
2017-11-29T22:04:15.719Z,70.65
2017-11-29T22:06:17.865Z,70.66
2017-11-29T22:08:19.921Z,70.77
2017-11-29T22:10:21.988Z,70.72
2017-11-29T22:12:24.370Z,70.76
2017-11-29T22:14:26.761Z,70.77
2017-11-29T22:16:29.407Z,70.82
2017-11-29T22:18:31.686Z,70.79
2017-11-29T22:20:34.023Z,70.75
2017-11-29T22:22:36.262Z,70.80
2017-11-29T22:24:38.602Z,70.75
2017-11-29T22:26:40.265Z,70.69
2017-11-29T22:28:42.606Z,70.78
2017-11-29T22:30:45.106Z,70.70
2017-11-29T22:32:47.832Z,70.75
2017-11-29T22:34:49.770Z,70.73
2017-11-29T22:36:51.972Z,70.81
2017-11-29T22:38:54.560Z,70.76
2017-11-29T22:40:56.817Z,70.84
2017-11-29T22:42:59.086Z,70.88
2017-11-29T22:45:01.560Z,70.90
2017-11-29T22:47:03.731Z,70.94
2017-11-29T22:49:06.246Z,70.83
2017-11-29T22:51:08.581Z,70.80
2017-11-29T22:53:10.930Z,70.87
2017-11-29T22:55:13.410Z,70.87
2017-11-29T22:57:16.078Z,70.96
2017-11-29T22:59:18.440Z,70.89
2017-11-29T23:01:20.705Z,70.79
2017-11-29T23:03:22.665Z,70.81
2017-11-29T23:05:24.731Z,70.80
2017-11-29T23:07:27.000Z,70.87
2017-11-29T23:09:28.891Z,70.91
2017-11-29T23:11:31.461Z,70.98
2017-11-29T23:13:33.719Z,70.84
2017-11-29T23:15:35.576Z,70.87
2017-11-29T23:17:37.525Z,71.05
2017-11-29T23:19:40.095Z,71.01
2017-11-29T23:21:42.557Z,71.03
2017-11-29T23:23:44.737Z,71.12
2017-11-29T23:25:46.868Z,71.25
2017-11-29T23:27:49.004Z,71.31
2017-11-29T23:29:51.428Z,71.37
2017-11-29T23:31:53.692Z,71.40
2017-11-29T23:33:55.724Z,71.49
2017-11-29T23:35:57.808Z,71.57
2017-11-29T23:38:02.858Z,71.58
2017-11-29T23:40:05.432Z,71.65
2017-11-29T23:42:07.685Z,71.66
2017-11-29T23:44:09.753Z,71.78
2017-11-29T23:46:11.288Z,71.83
2017-11-29T23:48:13.649Z,71.79
2017-11-29T23:50:15.933Z,71.91
2017-11-29T23:52:17.781Z,71.90
2017-11-29T23:54:19.960Z,71.94
2017-11-29T23:56:22.083Z,72.01
2017-11-29T23:58:24.232Z,72.09
